Time;durP1;ratioP1;P1;durP2;ratioP2;P2;SDS_P1;SDS_P2;PMS_P1;PMS_P2;Temp;Humidity;BMP_temperature;BMP_pressure;BME280_temperature;BME280_humidity;BME280_pressure;Samples;Min_cycle;Max_cycle;Signal;HPM_P1;HPM_P2
2023/08/17 00:00:39;;;;;;;1.00;0.57;;;17.90;1.00;;;;;;5037970;28;20038;-80
2023/08/17 00:03:05;;;;;;;1.50;0.80;;;17.80;1.00;;;;;;5034483;28;20029;-80
2023/08/17 00:05:32;;;;;;;0.80;0.50;;;17.80;1.00;;;;;;5030385;28;20049;-80
2023/08/17 00:08:01;;;;;;;2.53;1.08;;;17.80;1.00;;;;;;5036153;28;20045;-81
2023/08/17 00:10:27;;;;;;;1.45;0.80;;;17.80;1.00;;;;;;5030401;28;20026;-80
2023/08/17 00:12:53;;;;;;;1.33;0.73;;;17.90;1.00;;;;;;5023122;28;20672;-81
2023/08/17 00:15:19;;;;;;;2.60;0.63;;;17.90;1.00;;;;;;5021121;28;20033;-80
2023/08/17 00:17:46;;;;;;;1.33;0.70;;;17.80;1.00;;;;;;5032175;28;20029;-81
2023/08/17 00:20:15;;;;;;;1.42;0.77;;;17.80;1.00;;;;;;5037575;28;20046;-81
2023/08/17 00:22:42;;;;;;;1.98;0.98;;;17.70;1.00;;;;;;5030179;28;20463;-81
2023/08/17 00:25:08;;;;;;;2.35;0.70;;;17.60;1.00;;;;;;5038623;28;20041;-81
2023/08/17 00:27:34;;;;;;;2.85;0.82;;;17.60;1.00;;;;;;5029635;28;20036;-79
2023/08/17 00:30:00;;;;;;;1.63;0.90;;;17.60;1.00;;;;;;5023096;28;20101;-80
2023/08/17 00:32:26;;;;;;;3.05;0.90;;;17.50;1.00;;;;;;5026909;28;20029;-81
2023/08/17 00:34:53;;;;;;;1.95;1.08;;;17.60;1.00;;;;;;5029176;28;20041;-80
2023/08/17 00:37:20;;;;;;;2.10;0.93;;;17.60;1.00;;;;;;5025323;28;20390;-81
2023/08/17 00:39:46;;;;;;;2.10;0.93;;;17.70;1.00;;;;;;5014421;28;20049;-80
2023/08/17 00:42:12;;;;;;;1.25;0.82;;;17.70;1.00;;;;;;5040900;28;20375;-80
2023/08/17 00:44:38;;;;;;;2.85;0.90;;;17.60;1.00;;;;;;5037650;28;20042;-79
2023/08/17 00:47:04;;;;;;;2.40;0.90;;;17.60;1.00;;;;;;5027170;28;20490;-80
2023/08/17 00:49:31;;;;;;;1.35;0.70;;;17.60;1.00;;;;;;5031987;28;20049;-79
2023/08/17 00:51:57;;;;;;;1.65;0.73;;;17.60;1.00;;;;;;5031650;28;20300;-81
2023/08/17 00:54:26;;;;;;;3.08;0.80;;;17.60;1.00;;;;;;5031511;28;20037;-81
2023/08/17 00:56:53;;;;;;;3.78;1.88;;;17.60;1.00;;;;;;5020575;28;20072;-80
2023/08/17 00:59:20;;;;;;;2.17;0.90;;;17.70;1.00;;;;;;5029179;28;20054;-81
2023/08/17 01:01:48;;;;;;;1.67;0.85;;;17.70;1.00;;;;;;5028453;28;20040;-81
2023/08/17 01:04:14;;;;;;;1.67;0.88;;;17.70;1.00;;;;;;5031713;28;20042;-81
2023/08/17 01:06:40;;;;;;;1.77;0.93;;;17.70;1.00;;;;;;5032108;28;20096;-81
2023/08/17 01:09:07;;;;;;;2.42;1.05;;;17.60;1.00;;;;;;5037038;28;20052;-79
2023/08/17 01:11:49;;;;;;;3.65;1.00;;;17.70;1.00;;;;;;5030094;28;20040;-81
2023/08/17 01:14:27;;;;;;;2.28;1.38;;;17.70;1.00;;;;;;5024398;28;20042;-80
2023/08/17 01:17:00;;;;;;;2.50;0.98;;;17.60;1.00;;;;;;5029795;28;20477;-80
2023/08/17 01:19:27;;;;;;;1.20;0.70;;;17.60;1.00;;;;;;5028801;28;20375;-80
2023/08/17 01:22:08;;;;;;;1.98;0.82;;;17.50;1.00;;;;;;5024356;28;20053;-80
2023/08/17 01:24:35;;;;;;;1.95;1.20;;;17.50;1.00;;;;;;5034063;28;20036;-79
2023/08/17 01:27:01;;;;;;;1.92;0.90;;;17.50;1.00;;;;;;5034687;28;20036;-80
2023/08/17 01:29:28;;;;;;;3.83;0.95;;;17.40;1.00;;;;;;5029682;28;20092;-79
2023/08/17 01:32:03;;;;;;;2.00;1.05;;;17.40;1.00;;;;;;5025691;28;20042;-80
2023/08/17 01:34:32;;;;;;;1.92;0.70;;;17.40;1.00;;;;;;5032942;28;20051;-80
2023/08/17 01:37:06;;;;;;;2.27;1.13;;;17.40;1.00;;;;;;5026387;28;20029;-80
2023/08/17 01:39:39;;;;;;;3.10;1.42;;;17.40;1.00;;;;;;5016813;28;20289;-80
2023/08/17 01:42:07;;;;;;;2.10;1.00;;;17.40;1.00;;;;;;5027853;28;20025;-80
2023/08/17 01:44:33;;;;;;;3.13;1.25;;;17.40;1.00;;;;;;5024935;28;20149;-80
2023/08/17 01:46:59;;;;;;;2.15;1.08;;;17.40;1.00;;;;;;5030274;28;20025;-80
2023/08/17 01:49:25;;;;;;;3.53;1.23;;;17.40;1.00;;;;;;5027009;28;20033;-80
2023/08/17 01:51:52;;;;;;;3.83;1.33;;;17.40;1.00;;;;;;5036533;28;20051;-80
2023/08/17 01:54:19;;;;;;;2.50;1.05;;;17.40;1.00;;;;;;5031904;28;20041;-80
2023/08/17 01:56:45;;;;;;;2.50;1.10;;;17.30;1.00;;;;;;5018149;28;20889;-80
2023/08/17 01:59:12;;;;;;;1.92;1.02;;;17.30;1.00;;;;;;5031251;28;20056;-80
2023/08/17 02:01:39;;;;;;;2.03;1.33;;;17.20;1.00;;;;;;5025705;28;20025;-78
2023/08/17 02:04:05;;;;;;;6.07;1.50;;;17.10;1.00;;;;;;5020056;28;20046;-80
2023/08/17 02:06:31;;;;;;;1.55;0.93;;;17.10;1.00;;;;;;5020069;28;20030;-81
2023/08/17 02:08:58;;;;;;;2.10;1.00;;;17.10;1.00;;;;;;5033340;28;20510;-80
2023/08/17 02:11:24;;;;;;;1.50;1.20;;;17.10;1.00;;;;;;5030849;28;20470;-80
2023/08/17 02:13:51;;;;;;;1.80;1.25;;;17.00;1.00;;;;;;5028827;28;20045;-81
2023/08/17 02:16:17;;;;;;;3.42;1.30;;;17.00;1.00;;;;;;5037018;28;20059;-81
2023/08/17 02:18:43;;;;;;;4.57;1.63;;;17.00;1.00;;;;;;5031650;28;20040;-80
2023/08/17 02:21:10;;;;;;;3.80;1.55;;;17.00;1.00;;;;;;5016117;28;20380;-81
2023/08/17 02:23:38;;;;;;;3.13;1.23;;;17.00;2.70;;;;;;5027722;28;20348;-78
2023/08/17 02:26:04;;;;;;;4.70;1.75;;;17.10;16.20;;;;;;5026606;28;20038;-81
2023/08/17 02:28:31;;;;;;;7.35;1.38;;;17.10;33.60;;;;;;5025023;28;20053;-81
2023/08/17 02:30:58;;;;;;;3.28;1.50;;;17.10;44.50;;;;;;5029282;28;20033;-80
2023/08/17 02:33:27;;;;;;;3.27;2.03;;;17.10;57.20;;;;;;5038979;28;20040;-81
2023/08/17 02:35:53;;;;;;;2.78;1.90;;;17.10;72.90;;;;;;5032095;28;20044;-80
2023/08/17 02:38:20;;;;;;;7.50;1.98;;;17.10;85.60;;;;;;5022010;28;20484;-82
2023/08/17 02:40:46;;;;;;;3.47;1.80;;;17.10;89.50;;;;;;5019632;28;20036;-80
2023/08/17 02:43:12;;;;;;;2.50;1.75;;;17.10;93.20;;;;;;5030690;28;20038;-81
2023/08/17 02:45:38;;;;;;;4.03;1.70;;;17.10;95.10;;;;;;5030901;28;20049;-81
2023/08/17 02:48:04;;;;;;;3.47;1.83;;;17.10;98.10;;;;;;5016856;28;20057;-81
2023/08/17 02:50:30;;;;;;;4.80;1.63;;;17.10;99.60;;;;;;5027170;28;20025;-81
2023/08/17 02:52:57;;;;;;;3.88;1.92;;;17.10;98.30;;;;;;5034879;28;20030;-81
2023/08/17 02:55:23;;;;;;;3.03;1.55;;;17.10;96.90;;;;;;5028955;28;20044;-81
2023/08/17 02:57:49;;;;;;;6.45;2.38;;;17.10;97.00;;;;;;5028854;28;20045;-80
2023/08/17 03:00:15;;;;;;;6.03;2.40;;;17.00;97.20;;;;;;5035128;28;20049;-81
2023/08/17 03:02:41;;;;;;;4.80;2.42;;;17.00;95.90;;;;;;5027735;28;20355;-78
2023/08/17 03:05:07;;;;;;;4.45;2.13;;;17.00;97.30;;;;;;5024322;28;20489;-81
2023/08/17 03:07:34;;;;;;;4.68;2.55;;;16.90;99.30;;;;;;5031188;28;20036;-79
2023/08/17 03:10:00;;;;;;;4.72;2.97;;;16.90;99.90;;;;;;5027083;28;20033;-81
2023/08/17 03:12:26;;;;;;;8.82;2.90;;;16.80;99.90;;;;;;5031762;28;20056;-81
2023/08/17 03:14:52;;;;;;;6.50;2.95;;;16.80;99.90;;;;;;5030814;28;20038;-81
2023/08/17 03:17:19;;;;;;;5.30;2.97;;;16.80;99.90;;;;;;5045338;28;20045;-81
2023/08/17 03:19:45;;;;;;;7.95;3.13;;;16.80;99.90;;;;;;5038068;28;20418;-78
2023/08/17 03:22:11;;;;;;;6.22;3.08;;;16.70;99.90;;;;;;5034200;28;20041;-81
2023/08/17 03:24:40;;;;;;;6.03;3.25;;;16.80;99.90;;;;;;5021415;28;20045;-81
2023/08/17 03:27:06;;;;;;;6.40;2.80;;;16.70;99.90;;;;;;5034727;28;20034;-80
2023/08/17 03:29:33;;;;;;;5.88;3.47;;;16.70;99.90;;;;;;5040530;28;20060;-81
2023/08/17 03:31:59;;;;;;;5.55;2.67;;;16.80;99.90;;;;;;5021532;28;20040;-81
2023/08/17 03:34:26;;;;;;;4.93;2.25;;;16.80;99.90;;;;;;5038695;28;20033;-81
2023/08/17 03:36:52;;;;;;;3.75;2.22;;;16.70;99.90;;;;;;5038688;28;20044;-81
2023/08/17 03:39:18;;;;;;;5.60;2.72;;;16.80;99.90;;;;;;5033137;28;20475;-80
2023/08/17 03:41:44;;;;;;;5.68;2.88;;;16.90;99.90;;;;;;5037351;28;20045;-79
2023/08/17 03:44:10;;;;;;;8.60;3.65;;;17.00;99.90;;;;;;5035969;28;20029;-81
2023/08/17 03:46:36;;;;;;;8.13;4.53;;;17.00;99.90;;;;;;5027376;28;20030;-80
2023/08/17 03:49:04;;;;;;;10.80;4.53;;;17.00;99.90;;;;;;5031321;28;20068;-78
2023/08/17 03:51:30;;;;;;;11.77;4.13;;;17.00;99.90;;;;;;5046157;28;20452;-79
2023/08/17 03:53:56;;;;;;;11.75;4.57;;;17.00;99.90;;;;;;5029148;28;20041;-80
2023/08/17 03:56:22;;;;;;;9.77;4.10;;;17.10;99.90;;;;;;5024908;28;20501;-81
2023/08/17 03:58:50;;;;;;;9.38;5.10;;;17.10;99.90;;;;;;5037446;28;20053;-80
2023/08/17 04:01:16;;;;;;;13.88;5.20;;;17.10;99.90;;;;;;5034912;28;20037;-81
2023/08/17 04:03:43;;;;;;;12.82;4.90;;;17.10;99.90;;;;;;5030698;28;20046;-82
2023/08/17 04:06:10;;;;;;;10.50;4.75;;;17.10;99.90;;;;;;5030178;28;20463;-81
2023/08/17 04:08:37;;;;;;;13.77;6.15;;;17.20;99.90;;;;;;5041238;28;20045;-80
2023/08/17 04:11:04;;;;;;;12.10;4.72;;;17.20;99.90;;;;;;5034432;28;20060;-81
2023/08/17 04:13:31;;;;;;;11.35;4.55;;;17.20;99.90;;;;;;5019540;28;20037;-80
2023/08/17 04:15:57;;;;;;;16.10;5.50;;;17.20;99.90;;;;;;5024127;28;20029;-81
2023/08/17 04:18:23;;;;;;;13.85;5.40;;;17.10;99.90;;;;;;5028705;28;20053;-81
2023/08/17 04:20:50;;;;;;;12.88;5.30;;;17.10;99.90;;;;;;5023887;28;20047;-80
2023/08/17 04:23:17;;;;;;;21.95;5.95;;;17.20;99.90;;;;;;5027536;28;20044;-82
2023/08/17 04:25:44;;;;;;;18.73;6.43;;;17.20;99.90;;;;;;5027211;28;20030;-83
2023/08/17 04:28:10;;;;;;;15.85;5.90;;;17.10;99.90;;;;;;5029683;28;20071;-82
2023/08/17 04:30:37;;;;;;;14.10;5.93;;;17.20;99.90;;;;;;5027757;28;20496;-81
2023/08/17 04:33:04;;;;;;;17.48;6.03;;;17.20;99.90;;;;;;5031048;28;20525;-80
2023/08/17 04:35:30;;;;;;;20.00;6.00;;;17.20;99.90;;;;;;5044454;28;20044;-81
2023/08/17 04:37:56;;;;;;;20.80;7.13;;;17.20;99.90;;;;;;5020668;28;20045;-83
2023/08/17 04:40:23;;;;;;;20.48;6.22;;;17.20;99.90;;;;;;5018180;28;20048;-81
2023/08/17 04:42:49;;;;;;;23.50;7.28;;;17.20;99.90;;;;;;5043008;28;20041;-79
2023/08/17 04:45:15;;;;;;;25.05;7.00;;;17.30;99.90;;;;;;5038876;28;20068;-81
2023/08/17 04:47:44;;;;;;;21.92;6.72;;;17.30;99.90;;;;;;5028842;28;20045;-83
2023/08/17 04:50:16;;;;;;;24.05;7.45;;;17.30;99.90;;;;;;5025513;28;20037;-81
2023/08/17 04:52:45;;;;;;;22.00;7.10;;;17.30;99.90;;;;;;5031197;28;20045;-82
2023/08/17 04:55:13;;;;;;;29.90;7.60;;;17.30;99.90;;;;;;5024406;28;20042;-85
2023/08/17 04:57:42;;;;;;;27.70;7.85;;;17.40;1.00;;;;;;5017518;28;20410;-83
2023/08/17 05:00:11;;;;;;;23.50;7.40;;;17.40;1.00;;;;;;5028422;28;20049;-82
2023/08/17 05:02:37;;;;;;;27.58;7.82;;;17.50;1.00;;;;;;5037589;28;20050;-83
2023/08/17 05:05:09;;;;;;;24.17;7.10;;;17.50;1.00;;;;;;5030191;28;20049;-84
2023/08/17 05:07:36;;;;;;;20.88;6.20;;;17.50;99.90;;;;;;5036591;28;20037;-83
2023/08/17 05:10:03;;;;;;;19.88;6.30;;;17.50;99.90;;;;;;5030902;28;20034;-83
2023/08/17 05:12:36;;;;;;;24.52;7.20;;;17.50;99.90;;;;;;5032230;28;20072;-83
2023/08/17 05:15:03;;;;;;;20.38;7.00;;;17.50;99.90;;;;;;5026850;28;20045;-84
2023/08/17 05:17:30;;;;;;;25.02;8.40;;;17.50;99.90;;;;;;5034535;28;20033;-84
2023/08/17 05:19:56;;;;;;;22.30;6.93;;;17.60;99.90;;;;;;5023841;28;20057;-85
2023/08/17 05:22:22;;;;;;;24.23;6.53;;;17.60;99.90;;;;;;5028548;28;20533;-85
2023/08/17 05:24:49;;;;;;;20.08;6.35;;;17.60;99.90;;;;;;5039077;28;20486;-79
2023/08/17 05:27:15;;;;;;;25.88;7.63;;;17.70;99.90;;;;;;5037768;28;20041;-84
2023/08/17 05:29:41;;;;;;;17.88;6.03;;;17.70;99.90;;;;;;5033278;28;20471;-82
2023/08/17 05:32:07;;;;;;;20.00;7.60;;;17.70;99.90;;;;;;5030062;28;20402;-84
2023/08/17 05:34:34;;;;;;;23.40;7.63;;;17.80;99.90;;;;;;5022505;28;20355;-84
2023/08/17 05:37:00;;;;;;;24.15;7.63;;;17.90;99.90;;;;;;5022607;28;20045;-82
2023/08/17 05:39:26;;;;;;;21.88;8.18;;;17.90;99.90;;;;;;5027644;28;20060;-82
2023/08/17 05:41:52;;;;;;;14.77;6.78;;;17.90;99.90;;;;;;5025413;28;20034;-82
2023/08/17 05:44:18;;;;;;;19.20;7.05;;;17.90;99.90;;;;;;5029344;28;20041;-84
2023/08/17 05:46:44;;;;;;;14.45;5.97;;;17.90;99.90;;;;;;5030879;28;20044;-83
2023/08/17 05:49:11;;;;;;;18.27;7.88;;;18.00;99.90;;;;;;5022508;28;20053;-85
2023/08/17 05:51:37;;;;;;;17.02;7.72;;;18.20;99.90;;;;;;5036679;28;20029;-79
2023/08/17 05:54:04;;;;;;;14.63;6.10;;;18.20;99.90;;;;;;5029311;28;20491;-81
2023/08/17 05:56:31;;;;;;;14.55;5.57;;;18.20;73.20;;;;;;5024717;28;20055;-84
2023/08/17 05:58:57;;;;;;;16.58;6.72;;;18.30;60.40;;;;;;5025955;28;20068;-80
2023/08/17 06:01:23;;;;;;;13.02;6.10;;;18.10;25.30;;;;;;5031834;28;20130;-81
2023/08/17 06:03:50;;;;;;;13.00;5.75;;;18.10;41.10;;;;;;5028617;28;20050;-76
2023/08/17 06:06:17;;;;;;;11.18;4.55;;;18.20;36.20;;;;;;5020435;28;20034;-83
2023/08/17 06:08:43;;;;;;;9.35;4.97;;;18.30;16.20;;;;;;5036092;28;20030;-85
2023/08/17 06:11:09;;;;;;;8.90;5.07;;;18.40;1.00;;;;;;5033841;28;20063;-81
2023/08/17 06:13:35;;;;;;;7.38;3.92;;;18.40;1.00;;;;;;5032483;28;20033;-82
2023/08/17 06:16:02;;;;;;;7.20;3.38;;;18.40;1.00;;;;;;5030751;28;20043;-83
2023/08/17 06:18:29;;;;;;;9.02;4.15;;;18.30;1.00;;;;;;5031424;28;20048;-81
2023/08/17 06:20:55;;;;;;;9.30;3.50;;;18.30;1.00;;;;;;5029143;28;20042;-83
2023/08/17 06:23:23;;;;;;;5.88;2.70;;;18.40;1.00;;;;;;5020678;28;20371;-82
2023/08/17 06:25:49;;;;;;;10.02;4.22;;;18.50;1.00;;;;;;5026024;28;20026;-81
2023/08/17 06:28:15;;;;;;;7.60;4.00;;;18.50;1.00;;;;;;5019363;28;20049;-83
2023/08/17 06:30:44;;;;;;;6.90;4.07;;;18.50;1.00;;;;;;5031401;28;20382;-82
2023/08/17 06:33:10;;;;;;;9.38;3.47;;;18.50;1.00;;;;;;5031911;28;20029;-82
2023/08/17 06:35:36;;;;;;;6.53;3.28;;;18.60;1.00;;;;;;5036110;28;20056;-83
2023/08/17 06:38:02;;;;;;;8.45;3.65;;;18.70;1.00;;;;;;5029293;28;20033;-83
2023/08/17 06:40:28;;;;;;;8.63;4.60;;;18.70;1.00;;;;;;5022308;28;20041;-83
2023/08/17 06:42:55;;;;;;;8.05;4.43;;;18.80;1.00;;;;;;5027676;28;20026;-82
2023/08/17 06:45:22;;;;;;;9.63;3.70;;;18.70;1.00;;;;;;5030401;28;20026;-82
2023/08/17 06:47:48;;;;;;;8.70;4.13;;;18.70;1.00;;;;;;5016668;28;20034;-83
2023/08/17 06:50:14;;;;;;;8.95;3.97;;;18.70;1.00;;;;;;5016495;28;20378;-83
2023/08/17 06:52:41;;;;;;;7.68;4.43;;;18.60;1.00;;;;;;5040494;28;20034;-83
2023/08/17 06:55:07;;;;;;;6.47;3.90;;;18.60;1.00;;;;;;5034136;28;20038;-83
2023/08/17 06:57:33;;;;;;;9.95;4.55;;;18.70;1.00;;;;;;5027744;28;20025;-84
2023/08/17 06:59:59;;;;;;;6.53;3.58;;;18.60;1.00;;;;;;5035496;28;20386;-82
2023/08/17 07:02:26;;;;;;;8.05;3.88;;;18.80;1.00;;;;;;5029804;28;20033;-82
2023/08/17 07:04:53;;;;;;;5.97;3.25;;;19.00;1.00;;;;;;5020312;28;20041;-77
2023/08/17 07:07:19;;;;;;;5.88;3.53;;;19.20;1.00;;;;;;5025047;28;20026;-83
2023/08/17 07:09:45;;;;;;;7.30;3.83;;;19.10;99.90;;;;;;5023585;28;20383;-83
2023/08/17 07:12:11;;;;;;;5.30;2.90;;;19.20;99.90;;;;;;5023375;28;20471;-83
2023/08/17 07:14:37;;;;;;;7.20;3.58;;;19.30;99.90;;;;;;5026740;28;20034;-84
2023/08/17 07:17:03;;;;;;;8.15;4.10;;;19.30;99.90;;;;;;5039469;28;20038;-84
2023/08/17 07:19:29;;;;;;;5.93;3.40;;;19.40;99.90;;;;;;5030709;28;20041;-83
2023/08/17 07:21:55;;;;;;;5.85;3.28;;;19.40;99.90;;;;;;5023359;28;20033;-83
2023/08/17 07:24:21;;;;;;;6.57;3.53;;;19.40;99.90;;;;;;5028981;28;20029;-83
2023/08/17 07:26:47;;;;;;;8.73;4.13;;;19.40;99.90;;;;;;5029743;28;20041;-84
2023/08/17 07:29:14;;;;;;;5.90;2.92;;;19.40;99.90;;;;;;5023285;28;20037;-83
2023/08/17 07:31:40;;;;;;;6.32;3.65;;;19.50;99.90;;;;;;5016325;28;20038;-83
2023/08/17 07:34:06;;;;;;;6.22;3.42;;;19.50;99.90;;;;;;5024234;28;20029;-85
2023/08/17 07:36:33;;;;;;;5.72;3.10;;;19.50;99.90;;;;;;5036313;28;20029;-84
2023/08/17 07:39:00;;;;;;;4.80;3.05;;;19.60;99.90;;;;;;5030383;28;20042;-83
2023/08/17 07:41:26;;;;;;;8.23;4.40;;;19.60;99.90;;;;;;5027296;28;20033;-83
2023/08/17 07:43:52;;;;;;;5.55;3.65;;;19.60;99.90;;;;;;5035682;28;20038;-85
2023/08/17 07:46:18;;;;;;;4.97;3.03;;;19.50;99.90;;;;;;5024067;28;20038;-84
2023/08/17 07:48:44;;;;;;;5.40;2.60;;;19.60;99.90;;;;;;5020799;28;20045;-84
2023/08/17 07:51:11;;;;;;;3.90;2.38;;;19.70;99.90;;;;;;5027882;28;20460;-84
2023/08/17 07:53:37;;;;;;;4.93;3.05;;;19.80;99.90;;;;;;5030424;28;20042;-89
2023/08/17 07:56:03;;;;;;;5.65;3.03;;;19.90;99.90;;;;;;5021665;28;20041;-85
2023/08/17 07:58:29;;;;;;;5.82;3.17;;;20.00;99.90;;;;;;5034583;28;20056;-80
2023/08/17 08:00:56;;;;;;;5.35;3.58;;;20.20;99.90;;;;;;5037497;28;20041;-84
2023/08/17 08:03:22;;;;;;;4.88;2.97;;;20.20;99.90;;;;;;5032581;28;20363;-86
2023/08/17 08:05:48;;;;;;;5.78;3.88;;;20.00;99.90;;;;;;5031944;28;20398;-85
2023/08/17 08:08:14;;;;;;;6.72;3.53;;;20.00;99.90;;;;;;5031601;28;20529;-83
2023/08/17 08:10:41;;;;;;;4.47;3.10;;;20.00;99.90;;;;;;5029196;28;20033;-84
2023/08/17 08:13:07;;;;;;;4.68;3.22;;;20.20;99.90;;;;;;5023897;28;20379;-83
2023/08/17 08:15:33;;;;;;;5.22;2.92;;;20.30;99.90;;;;;;5024334;28;20042;-84
2023/08/17 08:18:00;;;;;;;4.38;2.85;;;20.50;99.90;;;;;;5029627;28;20790;-85
2023/08/17 08:20:26;;;;;;;5.72;3.35;;;20.50;99.90;;;;;;5037589;28;20387;-82
2023/08/17 08:22:52;;;;;;;6.03;3.33;;;20.40;99.90;;;;;;5031798;28;20036;-85
2023/08/17 08:25:18;;;;;;;4.45;3.03;;;20.30;99.90;;;;;;5042280;28;20045;-84
2023/08/17 08:27:44;;;;;;;5.80;2.97;;;20.30;99.90;;;;;;5040853;28;20033;-86
2023/08/17 08:30:11;;;;;;;5.30;2.80;;;20.50;99.90;;;;;;5028209;28;20049;-83
2023/08/17 08:32:37;;;;;;;6.80;3.42;;;20.50;99.90;;;;;;5029257;28;20021;-83
2023/08/17 08:35:03;;;;;;;4.70;3.22;;;20.80;99.90;;;;;;5042808;28;20033;-85
2023/08/17 08:37:29;;;;;;;5.18;2.42;;;20.70;99.90;;;;;;5022244;28;20030;-83
2023/08/17 08:39:56;;;;;;;6.72;3.83;;;20.80;99.90;;;;;;5023294;28;20037;-79
2023/08/17 08:42:24;;;;;;;3.85;2.97;;;21.10;96.70;;;;;;5039824;28;20048;-85
2023/08/17 08:44:51;;;;;;;5.95;3.30;;;21.40;24.00;;;;;;5038083;28;20388;-83
2023/08/17 08:47:18;;;;;;;4.65;2.90;;;21.20;31.90;;;;;;5031835;28;20025;-83
2023/08/17 08:50:03;;;;;;;4.85;3.28;;;21.30;40.20;;;;;;5026388;28;20381;-84
2023/08/17 08:52:34;;;;;;;5.85;3.97;;;21.30;9.80;;;;;;5033345;28;20045;-83
2023/08/17 08:55:07;;;;;;;7.65;3.83;;;21.30;18.30;;;;;;5024679;28;20029;-84
2023/08/17 08:57:34;;;;;;;5.80;3.78;;;21.30;1.00;;;;;;5018059;28;20030;-84
2023/08/17 09:00:01;;;;;;;6.43;3.35;;;21.00;54.90;;;;;;5018879;28;20050;-82
2023/08/17 09:02:28;;;;;;;4.88;3.00;;;20.90;81.90;;;;;;5032750;28;20451;-84
2023/08/17 09:04:54;;;;;;;5.32;3.63;;;21.30;23.30;;;;;;5037402;28;20029;-81
2023/08/17 09:07:22;;;;;;;4.25;2.72;;;21.60;1.00;;;;;;5034653;28;20041;-82
2023/08/17 09:09:48;;;;;;;4.28;3.13;;;21.80;1.00;;;;;;5033642;28;20363;-83
2023/08/17 09:12:14;;;;;;;3.47;2.53;;;21.90;1.00;;;;;;5028366;28;20045;-84
2023/08/17 09:14:41;;;;;;;5.00;3.40;;;22.00;1.00;;;;;;5024411;28;20040;-84
2023/08/17 09:17:08;;;;;;;3.72;2.50;;;21.50;1.00;;;;;;5029973;28;20071;-84
2023/08/17 09:19:34;;;;;;;3.25;2.30;;;21.60;1.00;;;;;;5027411;28;20060;-83
2023/08/17 09:22:01;;;;;;;3.97;3.05;;;22.20;1.00;;;;;;5018210;28;20045;-83
2023/08/17 09:24:35;;;;;;;3.55;2.70;;;22.10;1.00;;;;;;5028192;28;20037;-84
2023/08/17 09:27:02;;;;;;;4.30;2.50;;;22.50;1.00;;;;;;5036603;28;20042;-80
2023/08/17 09:29:33;;;;;;;4.60;2.67;;;22.60;1.00;;;;;;5035012;28;20487;-83
2023/08/17 09:32:05;;;;;;;3.75;2.80;;;22.20;1.00;;;;;;5029650;28;20506;-79
2023/08/17 09:34:32;;;;;;;4.47;2.95;;;22.20;1.00;;;;;;5035401;28;20029;-84
2023/08/17 09:37:05;;;;;;;4.22;2.50;;;22.30;1.00;;;;;;5028474;28;20030;-84
2023/08/17 09:39:32;;;;;;;3.38;2.30;;;23.20;99.90;;;;;;5019714;28;20049;-83
2023/08/17 09:42:00;;;;;;;3.30;2.30;;;23.50;99.90;;;;;;5025049;28;20047;-83
2023/08/17 09:44:27;;;;;;;3.30;2.22;;;23.40;99.90;;;;;;5026384;28;20036;-84
2023/08/17 09:46:56;;;;;;;3.00;2.10;;;23.30;99.90;;;;;;5031498;28;20063;-82
2023/08/17 09:49:25;;;;;;;4.50;2.97;;;23.80;99.90;;;;;;5028198;28;20033;-82
2023/08/17 09:51:52;;;;;;;3.25;2.25;;;23.00;99.90;;;;;;5037504;28;20587;-83
2023/08/17 09:54:24;;;;;;;4.15;2.00;;;22.60;1.00;;;;;;5029862;28;20041;-84
2023/08/17 09:56:51;;;;;;;4.65;2.28;;;23.20;99.90;;;;;;5025089;28;20033;-85
2023/08/17 09:59:17;;;;;;;3.47;1.70;;;23.20;99.90;;;;;;5028243;28;20053;-83
2023/08/17 10:01:47;;;;;;;2.42;1.60;;;23.60;99.90;;;;;;5028391;28;20033;-85
2023/08/17 10:04:15;;;;;;;;;;;23.60;99.90;;;;;;5020738;28;20046;-85
2023/08/17 10:06:42;;;;;;;2.53;1.70;;;23.90;99.90;;;;;;5015358;28;19916;-85
2023/08/17 10:09:12;;;;;;;2.58;1.88;;;23.80;99.90;;;;;;5039560;28;20040;-85
2023/08/17 10:11:40;;;;;;;3.72;2.13;;;23.70;99.90;;;;;;5035368;28;20049;-84
2023/08/17 10:14:13;;;;;;;3.25;2.13;;;24.40;99.90;;;;;;5030318;28;20048;-85
2023/08/17 10:16:49;;;;;;;3.13;1.83;;;24.80;99.90;;;;;;5033842;28;20466;-84
2023/08/17 10:19:36;;;;;;;2.53;2.03;;;24.10;99.90;;;;;;5030791;28;20038;-83
2023/08/17 10:22:30;;;;;;;3.88;2.03;;;23.60;99.90;;;;;;5020075;28;20025;-83
2023/08/17 10:25:05;;;;;;;4.38;2.65;;;23.20;99.90;;;;;;5022714;28;20100;-84
2023/08/17 10:27:33;;;;;;;4.00;2.40;;;23.30;99.90;;;;;;5025171;28;20033;-82
2023/08/17 10:30:01;;;;;;;3.45;2.20;;;23.20;99.90;;;;;;5030088;28;20037;-83
2023/08/17 10:32:28;;;;;;;2.75;2.08;;;23.50;99.90;;;;;;5026306;28;20040;-83
2023/08/17 10:34:55;;;;;;;2.50;1.85;;;23.50;99.90;;;;;;5039079;28;20025;-82
2023/08/17 10:37:24;;;;;;;4.38;2.80;;;23.70;99.90;;;;;;5029517;28;20041;-82
2023/08/17 10:39:51;;;;;;;2.73;2.07;;;23.50;99.90;;;;;;5021922;28;20037;-83
2023/08/17 10:42:37;;;;;;;3.25;2.40;;;23.70;99.90;;;;;;5031201;28;20042;-85
2023/08/17 10:45:22;;;;;;;3.75;2.38;;;23.60;99.90;;;;;;5025365;28;20059;-83
2023/08/17 10:47:48;;;;;;;4.07;2.50;;;23.70;99.90;;;;;;5021019;28;20038;-83
2023/08/17 10:50:23;;;;;;;3.40;1.85;;;23.50;99.90;;;;;;5014692;28;20048;-82
2023/08/17 10:52:50;;;;;;;3.72;2.17;;;23.60;99.90;;;;;;5041569;28;20034;-82
2023/08/17 10:55:18;;;;;;;3.00;2.22;;;23.40;99.90;;;;;;5033110;28;20486;-83
2023/08/17 10:57:45;;;;;;;2.83;1.73;;;23.50;99.90;;;;;;5027520;28;20050;-85
2023/08/17 11:00:19;;;;;;;2.50;1.67;;;23.70;99.90;;;;;;5018472;28;20046;-86
2023/08/17 11:02:55;;;;;;;2.45;1.35;;;24.10;99.90;;;;;;5017535;28;20050;-81
2023/08/17 11:06:13;;;;;;;2.85;1.30;;;24.50;99.90;;;;;;5003472;28;20053;-87
2023/08/17 11:08:52;;;;;;;1.85;1.42;;;24.40;99.90;;;;;;4998858;28;20057;-84
2023/08/17 11:11:20;;;;;;;2.97;1.70;;;24.10;99.90;;;;;;5006709;28;20506;-87
2023/08/17 11:13:47;;;;;;;2.08;1.50;;;24.00;99.90;;;;;;5006433;28;20049;-82
2023/08/17 11:16:16;;;;;;;2.15;1.42;;;24.00;99.90;;;;;;5011295;28;20053;-83
2023/08/17 11:18:44;;;;;;;1.92;1.20;;;24.40;99.90;;;;;;5014671;28;20041;-85
2023/08/17 11:21:10;;;;;;;2.28;1.50;;;24.60;99.90;;;;;;5011259;28;20152;-80
2023/08/17 11:23:37;;;;;;;2.65;1.95;;;24.50;99.90;;;;;;5012036;28;20045;-85
2023/08/17 11:26:04;;;;;;;3.67;1.63;;;24.40;99.90;;;;;;5015741;28;20501;-85
2023/08/17 11:28:41;;;;;;;1.88;1.20;;;24.40;99.90;;;;;;5001946;28;20159;-85
2023/08/17 11:31:10;;;;;;;1.63;1.20;;;24.40;99.90;;;;;;5011853;28;20442;-85
2023/08/17 11:33:37;;;;;;;3.33;1.27;;;24.70;99.90;;;;;;5011934;28;20061;-86
2023/08/17 11:36:06;;;;;;;2.28;1.40;;;24.60;99.90;;;;;;5004921;28;20038;-85
2023/08/17 11:38:37;;;;;;;1.58;1.13;;;24.70;99.90;;;;;;5015629;28;20050;-86
2023/08/17 11:41:04;;;;;;;2.50;0.88;;;25.10;99.90;;;;;;5010903;28;20042;-84
2023/08/17 11:43:32;;;;;;;2.50;1.13;;;25.60;99.90;;;;;;5025975;28;20029;-81
2023/08/17 11:46:00;;;;;;;1.45;1.05;;;25.60;99.90;;;;;;5018496;28;20474;-83
2023/08/17 11:48:27;;;;;;;1.75;1.25;;;25.50;85.50;;;;;;5012532;28;20351;-85
2023/08/17 11:50:54;;;;;;;1.75;1.35;;;25.40;95.10;;;;;;5013282;28;20033;-86
2023/08/17 11:53:21;;;;;;;2.83;1.17;;;25.50;99.90;;;;;;5010880;28;20045;-84
2023/08/17 11:55:48;;;;;;;2.35;1.38;;;25.40;99.90;;;;;;5006534;28;20050;-85
2023/08/17 11:58:15;;;;;;;1.55;1.15;;;25.00;99.90;;;;;;5020696;28;20053;-84
2023/08/17 12:00:45;;;;;;;3.83;1.83;;;25.00;99.90;;;;;;5042965;28;20385;-84
2023/08/17 12:03:18;;;;;;;1.25;0.80;;;25.20;99.90;;;;;;5036857;28;20053;-83
2023/08/17 12:05:45;;;;;;;2.28;1.48;;;25.60;99.90;;;;;;5030659;28;20036;-82
2023/08/17 12:08:14;;;;;;;1.85;1.20;;;25.60;99.90;;;;;;5030602;28;20041;-83
2023/08/17 12:10:40;;;;;;;2.03;1.70;;;25.20;99.90;;;;;;5033039;28;20389;-84
2023/08/17 12:13:10;;;;;;;4.13;1.65;;;25.40;99.90;;;;;;5023552;28;20033;-79
2023/08/17 12:15:38;;;;;;;2.30;1.48;;;25.70;99.90;;;;;;5021275;28;20045;-83
2023/08/17 12:18:04;;;;;;;2.60;1.50;;;25.70;99.90;;;;;;5028682;28;20045;-82
2023/08/17 12:20:35;;;;;;;6.05;2.35;;;25.60;99.90;;;;;;5035647;28;20046;-84
2023/08/17 12:23:02;;;;;;;1.92;0.98;;;25.70;99.90;;;;;;5034418;28;20033;-85
2023/08/17 12:25:30;;;;;;;2.25;1.23;;;25.40;99.90;;;;;;5036172;28;20053;-82
2023/08/17 12:28:00;;;;;;;2.35;1.55;;;25.40;99.90;;;;;;5030909;28;20040;-82
2023/08/17 12:30:35;;;;;;;1.63;1.05;;;25.00;99.90;;;;;;5024248;28;20034;-84
2023/08/17 12:33:02;;;;;;;2.83;1.20;;;25.10;99.90;;;;;;5023212;28;20041;-86
2023/08/17 12:35:29;;;;;;;3.33;2.08;;;25.00;99.90;;;;;;5029207;28;20029;-84
2023/08/17 12:37:55;;;;;;;3.13;1.85;;;25.20;99.90;;;;;;5031839;28;20040;-84
2023/08/17 12:40:23;;;;;;;4.75;2.10;;;25.50;99.90;;;;;;5018953;28;20048;-84
2023/08/17 12:42:49;;;;;;;2.97;2.22;;;25.70;95.30;;;;;;5043731;28;20033;-86
2023/08/17 12:45:16;;;;;;;3.70;1.80;;;25.80;82.70;;;;;;5037070;28;20047;-85
2023/08/17 12:47:42;;;;;;;4.07;1.60;;;25.90;55.10;;;;;;5029843;28;20049;-87
2023/08/17 12:50:09;;;;;;;2.35;1.63;;;25.60;95.50;;;;;;5035131;28;20052;-79